createdAt,value
2019-05-10T00:00:36.338Z,13.82
2019-05-10T00:05:59.666Z,13.80
2019-05-10T00:11:33.038Z,13.75
2019-05-10T00:16:40.692Z,13.83
2019-05-10T00:21:47.952Z,13.89
2019-05-10T00:26:56.723Z,13.80
2019-05-10T00:32:02.682Z,13.94
2019-05-10T00:37:14.085Z,13.89
2019-05-10T00:42:19.698Z,13.74
2019-05-10T00:47:25.161Z,13.46
2019-05-10T00:52:30.659Z,13.38
2019-05-10T00:57:38.630Z,13.47
2019-05-10T01:02:52.360Z,13.60
2019-05-10T01:08:05.984Z,13.57
2019-05-10T01:13:08.653Z,13.67
2019-05-10T01:18:18.148Z,13.38
2019-05-10T01:23:29.512Z,13.38
2019-05-10T01:28:35.059Z,13.44
2019-05-10T01:33:40.917Z,13.24
2019-05-10T01:38:48.887Z,13.13
2019-05-10T01:43:54.790Z,12.76
2019-05-10T01:49:11.503Z,12.70
2019-05-10T01:54:20.179Z,12.67
2019-05-10T01:59:26.036Z,12.70
2019-05-10T02:04:31.573Z,12.68
2019-05-10T02:09:37.089Z,12.44
2019-05-10T02:19:54.966Z,12.56
2019-05-10T02:25:01.757Z,12.39
2019-05-10T02:30:09.669Z,12.36
2019-05-10T02:35:15.344Z,12.39
2019-05-10T02:40:24.616Z,12.37
2019-05-10T02:45:35.528Z,12.34
2019-05-10T02:50:48.461Z,12.52
2019-05-10T02:55:54.641Z,12.46
2019-05-10T03:01:02.242Z,12.45
2019-05-10T03:06:15.597Z,12.57
2019-05-10T03:11:24.461Z,12.34
2019-05-10T03:16:36.877Z,12.29
2019-05-10T03:21:47.265Z,12.38
2019-05-10T03:26:53.321Z,12.38
2019-05-10T03:32:01.885Z,12.21
2019-05-10T03:37:08.696Z,12.31
2019-05-10T03:42:20.400Z,12.23
2019-05-10T03:47:27.507Z,12.28
2019-05-10T03:52:37.917Z,12.21
2019-05-10T03:57:46.312Z,12.11
2019-05-10T04:02:52.948Z,12.05
2019-05-10T04:07:59.104Z,12.17
2019-05-10T04:13:05.067Z,12.14
2019-05-10T04:18:10.711Z,12.28
2019-05-10T04:23:16.935Z,12.44
2019-05-10T04:28:22.938Z,12.11
2019-05-10T04:33:28.481Z,11.78
2019-05-10T04:38:35.033Z,12.16
2019-05-10T04:43:43.425Z,12.10
2019-05-10T04:48:50.531Z,12.09
2019-05-10T04:53:56.062Z,12.18
2019-05-10T04:59:03.246Z,12.35
2019-05-10T05:04:14.523Z,12.29
2019-05-10T05:09:24.138Z,12.49
2019-05-10T05:14:40.752Z,12.79
2019-05-10T05:19:41.280Z,12.80
2019-05-10T05:24:48.310Z,13.25
2019-05-10T05:30:02.896Z,14.61
2019-05-10T05:35:15.473Z,15.17
2019-05-10T05:40:25.383Z,14.58
2019-05-10T05:45:34.155Z,14.51
2019-05-10T05:50:39.757Z,13.96
2019-05-10T05:55:46.497Z,13.77
2019-05-10T06:00:55.148Z,15.54
2019-05-10T06:06:15.351Z,15.72
2019-05-10T06:11:13.293Z,15.35
2019-05-10T06:16:23.720Z,14.82
2019-05-10T06:21:31.672Z,14.53
2019-05-10T06:26:37.333Z,14.19
2019-05-10T06:31:44.113Z,14.30
2019-05-10T06:36:49.710Z,14.40
2019-05-10T06:42:08.842Z,14.14
2019-05-10T06:47:15.916Z,13.62
2019-05-10T06:52:27.266Z,13.87
2019-05-10T06:57:30.823Z,13.69
2019-05-10T07:02:40.090Z,13.50
2019-05-10T07:07:46.793Z,13.76
2019-05-10T07:12:57.169Z,13.51
2019-05-10T07:17:59.609Z,14.17
2019-05-10T07:23:06.592Z,14.12
2019-05-10T07:28:15.807Z,14.35
2019-05-10T07:33:22.535Z,14.17
2019-05-10T07:38:30.820Z,14.02
2019-05-10T07:43:37.281Z,14.16
2019-05-10T07:48:47.450Z,13.55
2019-05-10T07:53:57.028Z,13.44
2019-05-10T07:59:00.734Z,13.07
2019-05-10T08:04:12.912Z,13.19
2019-05-10T08:09:19.068Z,13.36
2019-05-10T08:14:30.166Z,13.84
2019-05-10T08:19:37.679Z,14.10
2019-05-10T08:24:44.566Z,14.21
2019-05-10T08:30:15.763Z,14.26
2019-05-10T08:34:58.373Z,14.37
2019-05-10T08:40:07.728Z,14.56
2019-05-10T08:45:13.364Z,14.57
2019-05-10T08:50:34.485Z,14.47
2019-05-10T08:55:26.404Z,14.62
2019-05-10T09:00:49.435Z,14.94
2019-05-10T09:05:44.514Z,15.85
2019-05-10T09:10:50.036Z,16.59
2019-05-10T09:15:57.051Z,16.23
2019-05-10T09:21:08.879Z,16.39
2019-05-10T09:26:16.261Z,16.94
2019-05-10T09:31:22.823Z,18.41
2019-05-10T09:36:31.266Z,17.73
2019-05-10T09:41:38.082Z,18.19
2019-05-10T09:46:44.050Z,18.62
2019-05-10T09:51:52.526Z,18.56
2019-05-10T09:57:02.618Z,17.51
2019-05-10T10:02:14.698Z,17.34
2019-05-10T10:07:18.936Z,16.58
2019-05-10T10:12:25.565Z,16.27
2019-05-10T10:17:40.282Z,16.18
2019-05-10T10:22:43.472Z,16.63
2019-05-10T10:27:48.840Z,16.59
2019-05-10T10:32:58.043Z,17.09
2019-05-10T10:38:05.103Z,17.64
2019-05-10T10:43:10.930Z,18.36
2019-05-10T10:48:18.044Z,18.18
2019-05-10T10:53:28.054Z,16.64
2019-05-10T10:58:34.969Z,16.48
2019-05-10T11:03:40.796Z,16.52
2019-05-10T11:08:46.289Z,16.07
2019-05-10T11:14:06.889Z,16.01
2019-05-10T11:19:15.608Z,16.26
2019-05-10T11:24:18.648Z,16.84
2019-05-10T11:29:27.655Z,16.90
2019-05-10T11:34:37.488Z,17.69
2019-05-10T11:39:46.899Z,18.53
2019-05-10T11:44:52.818Z,18.66
2019-05-10T11:49:56.673Z,18.92
2019-05-10T11:55:02.395Z,19.17
2019-05-10T12:00:24.512Z,17.98
2019-05-10T12:05:22.677Z,17.74
2019-05-10T12:10:26.453Z,18.10
2019-05-10T12:15:32.194Z,17.94
2019-05-10T12:20:52.115Z,16.82
2019-05-10T12:26:16.656Z,17.93
2019-05-10T12:30:58.429Z,17.91
2019-05-10T12:36:04.223Z,17.83
2019-05-10T12:41:12.228Z,17.97
2019-05-10T12:46:17.790Z,18.35
2019-05-10T12:51:23.385Z,18.35
2019-05-10T12:56:34.847Z,18.61
2019-05-10T13:01:38.748Z,18.34
2019-05-10T13:06:44.298Z,18.90
2019-05-10T13:11:49.801Z,19.02
2019-05-10T13:16:56.355Z,17.99
2019-05-10T13:22:09.175Z,18.62
2019-05-10T13:27:17.592Z,18.23
2019-05-10T13:32:23.267Z,18.13
2019-05-10T13:37:29.797Z,17.97
2019-05-10T13:42:43.319Z,18.69
2019-05-10T13:47:42.946Z,18.10
2019-05-10T13:52:51.265Z,17.56
2019-05-10T13:57:56.841Z,18.90
2019-05-10T14:03:05.063Z,19.01
2019-05-10T14:08:09.762Z,18.34
2019-05-10T14:13:16.786Z,18.60
2019-05-10T14:18:22.703Z,17.99
2019-05-10T14:23:28.954Z,18.93
2019-05-10T14:28:39.068Z,18.84
2019-05-10T14:34:14.255Z,18.91
2019-05-10T14:38:56.555Z,18.88
2019-05-10T14:44:08.298Z,18.28
2019-05-10T14:49:14.019Z,18.55
2019-05-10T14:54:20.811Z,18.61
2019-05-10T14:59:27.652Z,17.95
2019-05-10T15:04:48.651Z,18.56
2019-05-10T15:09:40.431Z,18.48
2019-05-10T15:14:45.894Z,17.96
2019-05-10T15:19:57.627Z,17.87
2019-05-10T15:24:59.872Z,17.94
2019-05-10T15:30:08.130Z,17.98
2019-05-10T15:35:13.537Z,18.18
2019-05-10T15:40:19.774Z,17.72
2019-05-10T15:45:25.468Z,17.40
2019-05-10T15:50:32.641Z,17.61
2019-05-10T15:55:39.249Z,17.85
2019-05-10T16:00:44.891Z,17.58
2019-05-10T16:06:00.529Z,17.73
2019-05-10T16:10:57.619Z,17.83
2019-05-10T16:16:07.426Z,18.33
2019-05-10T16:21:15.124Z,17.95
2019-05-10T16:26:23.057Z,17.72
2019-05-10T16:31:28.896Z,17.22
2019-05-10T16:36:36.032Z,16.57
2019-05-10T16:41:43.598Z,15.57
2019-05-10T16:46:49.172Z,15.50
2019-05-10T16:51:54.735Z,15.53
2019-05-10T16:57:02.009Z,15.85
2019-05-10T17:02:11.972Z,15.70
2019-05-10T17:07:18.812Z,15.87
2019-05-10T17:12:27.781Z,16.11
2019-05-10T17:17:39.512Z,16.07
2019-05-10T17:22:47.587Z,16.32
2019-05-10T17:27:57.534Z,16.74
2019-05-10T17:33:04.121Z,16.74
2019-05-10T17:38:14.232Z,17.09
2019-05-10T17:43:20.596Z,17.07
2019-05-10T17:48:29.722Z,16.82
2019-05-10T17:53:37.418Z,16.73
2019-05-10T17:58:47.822Z,16.75
2019-05-10T18:03:53.426Z,16.75
2019-05-10T18:09:11.937Z,16.35
2019-05-10T18:14:19.742Z,16.31
2019-05-10T18:19:27.291Z,16.25
2019-05-10T18:24:42.117Z,16.22
2019-05-10T18:29:49.378Z,16.30
2019-05-10T18:34:57.533Z,15.88
2019-05-10T18:40:08.181Z,15.85
2019-05-10T18:45:16.738Z,15.82
2019-05-10T18:50:22.435Z,15.73
2019-05-10T18:55:28.723Z,15.46
2019-05-10T19:00:36.647Z,15.13
2019-05-10T19:05:46.799Z,15.27
2019-05-10T19:10:55.729Z,14.79
2019-05-10T19:16:03.368Z,14.58
2019-05-10T19:21:12.167Z,14.72
2019-05-10T19:26:23.941Z,14.30
2019-05-10T19:31:31.732Z,14.14
2019-05-10T19:36:38.725Z,14.01
2019-05-10T19:41:47.480Z,13.87
2019-05-10T19:46:54.395Z,13.61
2019-05-10T19:52:03.363Z,13.64
2019-05-10T19:57:16.403Z,13.38
2019-05-10T20:02:17.992Z,13.32
2019-05-10T20:07:23.658Z,13.26
2019-05-10T20:12:32.536Z,13.03
2019-05-10T20:17:38.257Z,13.01
2019-05-10T20:22:45.312Z,12.88
2019-05-10T20:27:52.068Z,12.71
2019-05-10T20:32:59.916Z,12.74
2019-05-10T20:38:10.833Z,12.72
2019-05-10T20:43:18.195Z,12.51
2019-05-10T20:48:25.470Z,12.32
2019-05-10T20:53:33.237Z,12.27
2019-05-10T20:58:38.857Z,12.31
2019-05-10T21:03:44.394Z,12.31
2019-05-10T21:08:50.071Z,12.23
2019-05-10T21:14:17.429Z,12.12
2019-05-10T21:19:12.912Z,12.19
2019-05-10T21:24:18.580Z,12.06
2019-05-10T21:29:24.967Z,11.83
2019-05-10T21:34:30.730Z,12.01
2019-05-10T21:39:38.709Z,12.00
2019-05-10T21:44:45.388Z,11.95
2019-05-10T21:49:50.990Z,11.58
2019-05-10T21:54:56.424Z,11.69
2019-05-10T22:00:04.228Z,11.91
2019-05-10T22:05:11.503Z,11.90
2019-05-10T22:10:17.166Z,10.86
2019-05-10T22:15:23.989Z,11.30
2019-05-10T22:20:33.102Z,11.50
2019-05-10T22:25:38.629Z,11.68
2019-05-10T22:30:44.328Z,11.76
2019-05-10T22:35:49.838Z,11.79
2019-05-10T22:40:55.356Z,11.52
2019-05-10T22:46:01.873Z,10.47
2019-05-10T22:51:11.868Z,11.22
2019-05-10T22:56:17.351Z,11.35
2019-05-10T23:01:25.409Z,11.71
2019-05-10T23:06:30.985Z,11.48
2019-05-10T23:11:36.546Z,11.49
2019-05-10T23:16:43.434Z,11.48
2019-05-10T23:21:48.966Z,11.66
2019-05-10T23:26:57.391Z,11.64
2019-05-10T23:32:05.275Z,11.92
2019-05-10T23:37:16.286Z,12.05
2019-05-10T23:42:23.336Z,11.95
2019-05-10T23:47:31.801Z,12.08
2019-05-10T23:52:46.190Z,11.99
2019-05-10T23:57:51.725Z,11.73
